Flight Track Log - Related Links

Times and Time Zones

All times are in EDT time to prevent confusion due to time zone crossing. See the LXJ537 flight status page for this flight to view local times or setup timezone preferences in your user account.

Time Position Orientation Groundspeed Altitude Reporting Facility
EDT Latitude Longitude Course Direction KTS MPH feet Rate Location/Type
Fri 10:09:38 AM 32.8000 -97.3500 180° South 166 191 2,200  Level Dallas / Fort Worth TRACON
Fri 10:10:38 AM 32.7500 -97.3500 180° South 182 209 4,400 1,835 Climbing Dallas / Fort Worth TRACON
Fri 10:11:39 AM 32.6833 -97.3333 168° South 231 266 5,900 1,488 Climbing Dallas / Fort Worth TRACON
Fri 10:12:39 AM 32.6333 -97.2833 140° Southeast 277 319 7,400 1,514 Climbing Dallas / Fort Worth TRACON
Fri 10:13:30 AM 32.6119 -97.2111 109° East 294 338 8,700 2,432 Climbing Fort Worth Center
Fri 10:14:30 AM 32.5761 -97.1078 112° Southeast 305 351 11,900 2,950 Climbing Fort Worth Center
Fri 10:15:30 AM 32.5322 -97.0242 122° Southeast 323 372 14,600 2,950 Climbing Fort Worth Center
Fri 10:16:30 AM 32.4381 -96.9900 163° South 298 343 17,800 3,050 Climbing Fort Worth Center
Fri 10:17:30 AM 32.3567 -96.9633 165° South 322 371 20,700 3,000 Climbing Fort Worth Center
Fri 10:18:30 AM 32.2542 -96.9319 165° South 361 415 23,800 2,150 Climbing Fort Worth Center
Fri 10:19:30 AM 32.1475 -96.9128 171° South 386 444 25,000 600 Climbing Fort Worth Center
Fri 10:20:30 AM 32.0286 -96.8964 173° South 421 484 25,000  Level Fort Worth Center
Fri 10:21:30 AM 31.9031 -96.8700 170° South 427 491 25,000  Level Fort Worth Center
Fri 10:22:30 AM 31.7842 -96.8514 172° South 429 494 25,000  Level Fort Worth Center
Fri 10:24:53 AM 31.5056 -96.8056 172° South 438 504 25,000  Level Houston Center
Fri 10:25:55 AM 31.3814 -96.7853 172° South 441 507 25,000  Level Houston Center
Fri 10:26:57 AM 31.2606 -96.7992 186° South 432 497 25,000  Level Houston Center
Fri 10:27:59 AM 31.1442 -96.8183 188° South 420 483 25,000  Level Houston Center
Fri 10:29:01 AM 31.0336 -96.8372 188° South 399 459 25,000 -645 Level Houston Center
Fri 10:31:05 AM 30.8133 -96.8750 188° South 390 449 23,000 -1,000 Descending Houston Center
Fri 10:32:07 AM 30.7011 -96.8575 172° South 374 430 21,900 -1,016 Descending Houston Center
Fri 10:33:09 AM 30.6322 -96.7672 132° Southeast 373 429 20,900 -968 Descending Houston Center
Fri 10:34:11 AM 30.5661 -96.6786 131° Southeast 363 418 19,900 -968 Descending Houston Center
Fri 10:35:13 AM 30.5006 -96.5936 132° Southeast 352 405 18,900 -1,065 Descending Houston Center
Fri 10:36:15 AM 30.4367 -96.5086 131° Southeast 347 399 17,700 -1,429 Descending Houston Center
Fri 10:36:37 AM 30.4108 -96.4778 134° Southeast 342 394 16,900 -2,038 Descending Houston Center
Fri 10:37:08 AM 30.3756 -96.4311 131° Southeast 337 388 15,900 -1,647 Descending Houston Center
Fri 10:38:19 AM 30.3131 -96.3481 131° Southeast 325 374 14,100 -1,672 Descending Houston Center
Fri 10:39:10 AM 30.2578 -96.2747 131° Southeast 303 349 12,500 -1,646 Descending Houston Center
Fri 10:40:12 AM 30.1950 -96.2044 136° Southeast 313 360 11,000 -726 Descending Houston Center
Fri 10:41:14 AM 30.1222 -96.1619 153° Southeast 290 334 11,000  Level Houston Center
Fri 10:42:15 AM 30.0453 -96.1200 155° Southeast 300 345 11,000  Level Houston Center
Fri 10:43:16 AM 29.9639 -96.0786 156° South 301 346 11,000  Level Houston Center
Fri 10:44:18 AM 29.8872 -96.0392 156° South 298 343 11,000  Level Houston Center
Fri 10:45:19 AM 29.8144 -95.9992 155° Southeast 293 337 11,000  Level Houston Center
Fri 10:45:34 AM 29.8044 -95.9933 153° Southeast 297 342 11,000  Level Houston Center
Fri 10:46:25 AM 29.7339 -95.9411 147° Southeast 300 345 11,000 -319 Level Houston Center
Fri 10:47:27 AM 29.6681 -95.8839 143° Southeast 301 346 10,400 -800 Descending Houston Center
Fri 10:48:40 AM 29.5950 -95.8192 142° Southeast 284 327 9,200 -983 Descending Houston Center
Fri 10:49:23 AM 29.5692 -95.7631 118° Southeast 285 328 8,500 -968 Descending Houston Center
Fri 10:49:42 AM 29.5714 -95.7408 83° East 289 333 8,200 -1,082 Descending Houston Center
Fri 10:50:24 AM 29.6014 -95.6778 61° Northeast 299 344 7,400 -968 Descending Houston Center
Fri 10:50:44 AM 29.6094 -95.6569 66° East 295 339 7,200 -984 Descending Houston Center
Fri 10:51:25 AM 29.6481 -95.5906 56° Northeast 293 337 6,400 -968 Descending Houston Center
Fri 10:51:46 AM 29.6561 -95.5794 50° Northeast 294 338 6,200 -885 Descending Houston Center
Fri 10:52:26 AM 29.6978 -95.5342 43° Northeast 243 280 5,500 -1,065 Descending Houston Center
Fri 10:52:48 AM 29.7144 -95.5142 46° Northeast 246 283 5,100 -984 Descending Houston Center
Fri 10:53:27 AM 29.7417 -95.4856 42° Northeast 207 238 4,500 -952 Descending Houston Center
Fri 10:53:51 AM 29.7586 -95.4692 40° Northeast 218 251 4,100 -968 Descending Houston Center
Fri 10:54:29 AM 29.7558 -95.4333 95° East 169 194 3,500 -968 Descending Houston Center
Fri 10:54:53 AM 29.7531 -95.4158 100° East 186 214 3,100 -1,000 Descending Houston Center
Fri 10:55:29 AM 29.7369 -95.3875 123° Southeast 155 178 2,500 -968 Descending Houston Center
Fri 10:55:55 AM 29.7264 -95.3761 137° Southeast 167 192 2,100 -871 Descending Houston Center
Fri 10:56:31 AM 29.7042 -95.3506 135° Southeast 151 174 1,600 -677 Descending Houston Center
Fri 10:56:57 AM 29.6964 -95.3408 133° Southeast 159 183 1,400 -689 Descending Houston Center
Fri 10:57:32 AM 29.6781 -95.3200 135° Southeast 131 151 900 -677 Descending Houston Center
Fri 10:57:59 AM 29.6719 -95.3100 125° Southeast 147 169 700 -590 Descending Houston Center
Fri 10:58:33 AM 29.6569 -95.2936 136° Southeast 125 144 300 -581 Descending Houston Center
Fri 10:59:01 AM 29.6506 -95.2858 133° Southeast 126 145 100 -429 Descending Houston Center
Fri 11:01:00 AM 29.6454 -95.2789 115° Southeast  Level Estimated

Login

Don't have an account? Register now (free) for customized features, flight alerts, and more!